sensor_id;sensor_type;location;lat;lon;timestamp;pressure;altitude;pressure_sealevel;temperature;humidity
17054;BME280;8643;48.824;11.422;2023-08-06T00:00:31;96206.13;;;15.28;100.00
17054;BME280;8643;48.824;11.422;2023-08-06T00:03:00;96200.44;;;15.10;100.00
17054;BME280;8643;48.824;11.422;2023-08-06T00:05:28;96204.44;;;15.16;100.00
17054;BME280;8643;48.824;11.422;2023-08-06T00:07:58;96211.44;;;15.07;100.00
17054;BME280;8643;48.824;11.422;2023-08-06T00:10:27;96204.41;;;14.75;100.00
17054;BME280;8643;48.824;11.422;2023-08-06T00:12:55;96211.75;;;14.60;100.00
17054;BME280;8643;48.824;11.422;2023-08-06T00:15:24;96206.13;;;14.57;100.00
17054;BME280;8643;48.824;11.422;2023-08-06T00:17:52;96196.63;;;14.51;100.00
17054;BME280;8643;48.824;11.422;2023-08-06T00:20:21;96202.91;;;14.47;100.00
17054;BME280;8643;48.824;11.422;2023-08-06T00:22:49;96193.91;;;14.54;100.00
17054;BME280;8643;48.824;11.422;2023-08-06T00:25:19;96203.72;;;14.52;100.00
17054;BME280;8643;48.824;11.422;2023-08-06T00:27:47;96195.41;;;14.48;100.00
17054;BME280;8643;48.824;11.422;2023-08-06T00:30:16;96194.13;;;14.38;100.00
17054;BME280;8643;48.824;11.422;2023-08-06T00:32:45;96205.38;;;14.26;100.00
17054;BME280;8643;48.824;11.422;2023-08-06T00:35:13;96201.03;;;14.25;100.00
17054;BME280;8643;48.824;11.422;2023-08-06T00:37:42;96201.13;;;14.32;100.00
17054;BME280;8643;48.824;11.422;2023-08-06T00:40:10;96202.72;;;14.33;100.00
17054;BME280;8643;48.824;11.422;2023-08-06T00:42:41;96201.44;;;14.27;100.00
17054;BME280;8643;48.824;11.422;2023-08-06T00:45:11;96198.31;;;14.28;100.00
17054;BME280;8643;48.824;11.422;2023-08-06T00:47:40;96199.47;;;14.27;100.00
17054;BME280;8643;48.824;11.422;2023-08-06T00:50:11;96199.97;;;14.33;100.00
17054;BME280;8643;48.824;11.422;2023-08-06T00:52:40;96209.94;;;14.45;100.00
17054;BME280;8643;48.824;11.422;2023-08-06T00:55:09;96206.72;;;14.39;100.00
17054;BME280;8643;48.824;11.422;2023-08-06T00:57:38;96210.22;;;14.36;100.00
17054;BME280;8643;48.824;11.422;2023-08-06T01:00:11;96208.06;;;14.22;100.00
17054;BME280;8643;48.824;11.422;2023-08-06T01:02:39;96199.63;;;14.08;100.00
17054;BME280;8643;48.824;11.422;2023-08-06T01:05:08;96200.03;;;14.06;100.00
17054;BME280;8643;48.824;11.422;2023-08-06T01:07:51;96206.03;;;14.16;100.00
17054;BME280;8643;48.824;11.422;2023-08-06T01:10:33;96200.50;;;14.16;100.00
17054;BME280;8643;48.824;11.422;2023-08-06T01:13:16;96194.22;;;14.15;100.00
17054;BME280;8643;48.824;11.422;2023-08-06T01:15:53;96188.16;;;14.02;100.00
17054;BME280;8643;48.824;11.422;2023-08-06T01:18:24;96187.41;;;14.05;100.00
17054;BME280;8643;48.824;11.422;2023-08-06T01:20:54;96196.41;;;14.02;100.00
17054;BME280;8643;48.824;11.422;2023-08-06T01:23:24;96197.56;;;14.01;100.00
17054;BME280;8643;48.824;11.422;2023-08-06T01:26:09;96201.38;;;13.93;100.00
17054;BME280;8643;48.824;11.422;2023-08-06T01:28:48;96201.00;;;13.94;100.00
17054;BME280;8643;48.824;11.422;2023-08-06T01:31:26;96198.31;;;13.98;100.00
17054;BME280;8643;48.824;11.422;2023-08-06T01:33:58;96203.69;;;13.87;100.00
17054;BME280;8643;48.824;11.422;2023-08-06T01:36:30;96199.69;;;13.85;100.00
17054;BME280;8643;48.824;11.422;2023-08-06T01:39:00;96206.00;;;13.85;100.00
17054;BME280;8643;48.824;11.422;2023-08-06T01:41:28;96207.63;;;13.90;100.00
17054;BME280;8643;48.824;11.422;2023-08-06T01:43:57;96205.69;;;13.90;100.00
17054;BME280;8643;48.824;11.422;2023-08-06T01:46:26;96201.38;;;13.93;100.00
17054;BME280;8643;48.824;11.422;2023-08-06T01:48:54;96199.69;;;13.85;100.00
17054;BME280;8643;48.824;11.422;2023-08-06T01:51:22;96200.44;;;13.82;100.00
17054;BME280;8643;48.824;11.422;2023-08-06T01:53:53;96197.69;;;13.82;100.00
17054;BME280;8643;48.824;11.422;2023-08-06T01:56:21;96199.22;;;13.79;100.00
17054;BME280;8643;48.824;11.422;2023-08-06T01:58:50;96192.19;;;13.82;100.00
17054;BME280;8643;48.824;11.422;2023-08-06T02:01:18;96184.88;;;13.93;100.00
17054;BME280;8643;48.824;11.422;2023-08-06T02:03:47;96178.25;;;13.98;100.00
17054;BME280;8643;48.824;11.422;2023-08-06T02:06:15;96166.84;;;13.96;100.00
17054;BME280;8643;48.824;11.422;2023-08-06T02:08:45;96158.16;;;13.93;100.00
17054;BME280;8643;48.824;11.422;2023-08-06T02:11:16;96171.47;;;13.91;100.00
17054;BME280;8643;48.824;11.422;2023-08-06T02:13:46;96178.16;;;13.90;100.00
17054;BME280;8643;48.824;11.422;2023-08-06T02:16:18;96172.63;;;13.87;100.00
17054;BME280;8643;48.824;11.422;2023-08-06T02:18:47;96166.72;;;13.88;100.00
17054;BME280;8643;48.824;11.422;2023-08-06T02:21:15;96159.72;;;13.94;100.00
17054;BME280;8643;48.824;11.422;2023-08-06T02:23:44;96154.88;;;13.84;100.00
17054;BME280;8643;48.824;11.422;2023-08-06T02:26:12;96151.72;;;13.82;100.00
17054;BME280;8643;48.824;11.422;2023-08-06T02:28:42;96151.66;;;13.79;100.00
17054;BME280;8643;48.824;11.422;2023-08-06T02:31:13;96161.13;;;13.81;100.00
17054;BME280;8643;48.824;11.422;2023-08-06T02:33:42;96162.66;;;13.79;100.00
17054;BME280;8643;48.824;11.422;2023-08-06T02:36:10;96162.78;;;13.86;100.00
17054;BME280;8643;48.824;11.422;2023-08-06T02:38:39;96153.78;;;13.89;100.00
17054;BME280;8643;48.824;11.422;2023-08-06T02:41:07;96157.25;;;13.86;100.00
17054;BME280;8643;48.824;11.422;2023-08-06T02:43:35;96155.03;;;13.95;100.00
17054;BME280;8643;48.824;11.422;2023-08-06T02:46:06;96149.09;;;13.93;100.00
17054;BME280;8643;48.824;11.422;2023-08-06T02:48:34;96140.56;;;13.71;100.00
17054;BME280;8643;48.824;11.422;2023-08-06T02:51:03;96141.44;;;13.79;100.00
17054;BME280;8643;48.824;11.422;2023-08-06T02:53:32;96140.34;;;13.84;100.00
17054;BME280;8643;48.824;11.422;2023-08-06T02:56:05;96139.59;;;13.87;100.00
17054;BME280;8643;48.824;11.422;2023-08-06T02:58:46;96140.63;;;13.79;100.00
17054;BME280;8643;48.824;11.422;2023-08-06T03:01:28;96133.09;;;13.72;100.00
17054;BME280;8643;48.824;11.422;2023-08-06T03:04:04;96123.38;;;13.51;100.00
17054;BME280;8643;48.824;11.422;2023-08-06T03:06:38;96116.28;;;13.50;100.00
17054;BME280;8643;48.824;11.422;2023-08-06T03:09:06;96108.81;;;13.51;100.00
17054;BME280;8643;48.824;11.422;2023-08-06T03:11:35;96115.19;;;13.55;100.00
17054;BME280;8643;48.824;11.422;2023-08-06T03:14:08;96107.16;;;13.73;100.00
17054;BME280;8643;48.824;11.422;2023-08-06T03:16:39;96117.53;;;13.83;100.00
17054;BME280;8643;48.824;11.422;2023-08-06T03:19:08;96115.56;;;13.84;100.00
17054;BME280;8643;48.824;11.422;2023-08-06T03:21:36;96107.72;;;13.86;100.00
17054;BME280;8643;48.824;11.422;2023-08-06T03:24:05;96103.53;;;13.96;100.00
17054;BME280;8643;48.824;11.422;2023-08-06T03:26:35;96103.06;;;13.90;100.00
17054;BME280;8643;48.824;11.422;2023-08-06T03:29:04;96100.31;;;13.90;100.00
17054;BME280;8643;48.824;11.422;2023-08-06T03:31:34;96102.56;;;13.81;100.00
17054;BME280;8643;48.824;11.422;2023-08-06T03:34:04;96097.84;;;13.81;100.00
17054;BME280;8643;48.824;11.422;2023-08-06T03:36:34;96097.44;;;13.79;100.00
17054;BME280;8643;48.824;11.422;2023-08-06T03:39:03;96102.13;;;13.79;100.00
17054;BME280;8643;48.824;11.422;2023-08-06T03:41:32;96108.03;;;13.77;100.00
17054;BME280;8643;48.824;11.422;2023-08-06T03:44:01;96102.81;;;13.72;100.00
17054;BME280;8643;48.824;11.422;2023-08-06T03:46:31;96106.72;;;13.67;100.00
17054;BME280;8643;48.824;11.422;2023-08-06T03:49:04;96102.78;;;13.68;100.00
17054;BME280;8643;48.824;11.422;2023-08-06T03:51:32;96102.00;;;13.68;100.00
17054;BME280;8643;48.824;11.422;2023-08-06T03:54:02;96110.34;;;13.75;100.00
17054;BME280;8643;48.824;11.422;2023-08-06T03:56:31;96100.03;;;13.68;100.00
17054;BME280;8643;48.824;11.422;2023-08-06T03:58:59;96096.13;;;13.69;100.00
17054;BME280;8643;48.824;11.422;2023-08-06T04:01:28;96092.56;;;13.69;100.00
17054;BME280;8643;48.824;11.422;2023-08-06T04:03:57;96100.41;;;13.67;100.00
17054;BME280;8643;48.824;11.422;2023-08-06T04:06:26;96094.91;;;13.67;100.00
17054;BME280;8643;48.824;11.422;2023-08-06T04:08:55;96079.94;;;13.64;100.00
17054;BME280;8643;48.824;11.422;2023-08-06T04:11:23;96091.25;;;13.59;100.00
17054;BME280;8643;48.824;11.422;2023-08-06T04:13:51;96083.78;;;13.56;100.00
17054;BME280;8643;48.824;11.422;2023-08-06T04:16:21;96087.72;;;13.59;100.00
17054;BME280;8643;48.824;11.422;2023-08-06T04:18:50;96091.56;;;13.54;100.00
17054;BME280;8643;48.824;11.422;2023-08-06T04:21:18;96094.97;;;13.44;100.00
17054;BME280;8643;48.824;11.422;2023-08-06T04:23:48;96094.19;;;13.43;100.00
17054;BME280;8643;48.824;11.422;2023-08-06T04:26:17;96096.44;;;13.37;100.00
17054;BME280;8643;48.824;11.422;2023-08-06T04:28:46;96100.97;;;13.26;100.00
17054;BME280;8643;48.824;11.422;2023-08-06T04:31:15;96097.38;;;13.22;100.00
17054;BME280;8643;48.824;11.422;2023-08-06T04:33:44;96101.34;;;13.25;100.00
17054;BME280;8643;48.824;11.422;2023-08-06T04:36:14;96097.56;;;13.33;100.00
17054;BME280;8643;48.824;11.422;2023-08-06T04:38:44;96086.84;;;13.28;100.00
17054;BME280;8643;48.824;11.422;2023-08-06T04:41:17;96086.19;;;13.34;100.00
17054;BME280;8643;48.824;11.422;2023-08-06T04:43:45;96094.44;;;13.34;100.00
17054;BME280;8643;48.824;11.422;2023-08-06T04:46:13;96102.97;;;13.29;100.00
17054;BME280;8643;48.824;11.422;2023-08-06T04:48:42;96108.69;;;13.40;100.00
17054;BME280;8643;48.824;11.422;2023-08-06T04:51:10;96096.94;;;13.43;100.00
17054;BME280;8643;48.824;11.422;2023-08-06T04:53:38;96091.78;;;13.38;100.00
17054;BME280;8643;48.824;11.422;2023-08-06T04:56:07;96108.47;;;13.29;100.00
17054;BME280;8643;48.824;11.422;2023-08-06T04:58:37;96113.19;;;13.29;100.00
17054;BME280;8643;48.824;11.422;2023-08-06T05:01:06;96106.72;;;13.41;100.00
17054;BME280;8643;48.824;11.422;2023-08-06T05:03:34;96107.19;;;13.46;100.00
17054;BME280;8643;48.824;11.422;2023-08-06T05:06:03;96106.50;;;13.53;100.00
17054;BME280;8643;48.824;11.422;2023-08-06T05:08:31;96097.25;;;13.65;100.00
17054;BME280;8643;48.824;11.422;2023-08-06T05:11:00;96108.28;;;13.68;100.00
17054;BME280;8643;48.824;11.422;2023-08-06T05:13:29;96104.00;;;13.71;100.00
17054;BME280;8643;48.824;11.422;2023-08-06T05:15:58;96103.25;;;13.74;100.00
17054;BME280;8643;48.824;11.422;2023-08-06T05:18:27;96106.84;;;13.78;100.00
17054;BME280;8643;48.824;11.422;2023-08-06T05:20:56;96104.94;;;13.82;100.00
17054;BME280;8643;48.824;11.422;2023-08-06T05:23:24;96095.66;;;13.94;100.00
17054;BME280;8643;48.824;11.422;2023-08-06T05:25:53;96102.91;;;14.09;100.00
17054;BME280;8643;48.824;11.422;2023-08-06T05:28:21;96101.91;;;14.25;100.00
17054;BME280;8643;48.824;11.422;2023-08-06T05:30:49;96105.81;;;14.24;100.00
17054;BME280;8643;48.824;11.422;2023-08-06T05:33:19;96100.44;;;14.35;100.00
17054;BME280;8643;48.824;11.422;2023-08-06T05:35:49;96098.81;;;14.30;100.00
17054;BME280;8643;48.824;11.422;2023-08-06T05:38:18;96100.31;;;14.24;100.00
17054;BME280;8643;48.824;11.422;2023-08-06T05:40:46;96095.25;;;14.26;100.00
17054;BME280;8643;48.824;11.422;2023-08-06T05:43:15;96101.69;;;14.41;100.00
17054;BME280;8643;48.824;11.422;2023-08-06T05:45:44;96096.66;;;14.50;100.00
17054;BME280;8643;48.824;11.422;2023-08-06T05:48:13;96098.31;;;14.58;100.00
17054;BME280;8643;48.824;11.422;2023-08-06T05:50:43;96101.53;;;14.60;100.00
17054;BME280;8643;48.824;11.422;2023-08-06T05:53:12;96098.19;;;14.44;100.00
17054;BME280;8643;48.824;11.422;2023-08-06T05:55:40;96101.13;;;14.24;100.00
17054;BME280;8643;48.824;11.422;2023-08-06T05:58:08;96095.31;;;14.33;100.00
17054;BME280;8643;48.824;11.422;2023-08-06T06:00:37;96095.31;;;14.33;100.00
17054;BME280;8643;48.824;11.422;2023-08-06T06:03:05;96096.03;;;14.26;100.00
17054;BME280;8643;48.824;11.422;2023-08-06T06:05:33;96091.81;;;14.36;100.00
17054;BME280;8643;48.824;11.422;2023-08-06T06:08:04;96094.28;;;14.48;100.00
17054;BME280;8643;48.824;11.422;2023-08-06T06:10:32;96093.34;;;14.34;100.00
17054;BME280;8643;48.824;11.422;2023-08-06T06:13:01;96093.97;;;14.16;100.00
17054;BME280;8643;48.824;11.422;2023-08-06T06:15:29;96096.25;;;14.10;100.00
17054;BME280;8643;48.824;11.422;2023-08-06T06:17:57;96099.38;;;14.09;100.00
17054;BME280;8643;48.824;11.422;2023-08-06T06:20:26;96099.91;;;14.22;100.00
17054;BME280;8643;48.824;11.422;2023-08-06T06:22:54;96091.94;;;14.13;100.00
17054;BME280;8643;48.824;11.422;2023-08-06T06:25:24;96100.28;;;14.20;100.00
17054;BME280;8643;48.824;11.422;2023-08-06T06:27:53;96093.31;;;14.30;100.00
17054;BME280;8643;48.824;11.422;2023-08-06T06:30:21;96095.03;;;14.45;100.00
17054;BME280;8643;48.824;11.422;2023-08-06T06:32:49;96098.25;;;14.51;100.00
17054;BME280;8643;48.824;11.422;2023-08-06T06:35:18;96106.97;;;14.57;100.00
17054;BME280;8643;48.824;11.422;2023-08-06T06:37:46;96097.22;;;14.63;100.00
17054;BME280;8643;48.824;11.422;2023-08-06T06:40:15;96094.72;;;14.51;100.00
17054;BME280;8643;48.824;11.422;2023-08-06T06:42:45;96095.69;;;14.32;100.00
17054;BME280;8643;48.824;11.422;2023-08-06T06:45:15;96102.34;;;14.30;100.00
17054;BME280;8643;48.824;11.422;2023-08-06T06:47:43;96095.75;;;14.39;100.00
17054;BME280;8643;48.824;11.422;2023-08-06T06:50:11;96098.59;;;14.46;100.00
17054;BME280;8643;48.824;11.422;2023-08-06T06:52:40;96091.72;;;14.63;100.00
17054;BME280;8643;48.824;11.422;2023-08-06T06:55:09;96094.25;;;14.82;100.00
17054;BME280;8643;48.824;11.422;2023-08-06T06:57:37;96088.50;;;15.02;100.00
17054;BME280;8643;48.824;11.422;2023-08-06T07:00:08;96083.06;;;15.09;100.00
17054;BME280;8643;48.824;11.422;2023-08-06T07:02:37;96077.19;;;15.14;100.00
17054;BME280;8643;48.824;11.422;2023-08-06T07:05:07;96071.22;;;15.68;100.00
17054;BME280;8643;48.824;11.422;2023-08-06T07:07:36;96077.84;;;16.33;100.00
17054;BME280;8643;48.824;11.422;2023-08-06T07:10:06;96075.97;;;16.98;100.00
17054;BME280;8643;48.824;11.422;2023-08-06T07:12:35;96073.88;;;16.34;100.00
17054;BME280;8643;48.824;11.422;2023-08-06T07:15:05;96064.75;;;16.23;100.00
17054;BME280;8643;48.824;11.422;2023-08-06T07:17:35;96062.97;;;15.75;100.00
17054;BME280;8643;48.824;11.422;2023-08-06T07:20:06;96066.88;;;15.67;100.00
17054;BME280;8643;48.824;11.422;2023-08-06T07:22:35;96069.13;;;15.47;100.00
17054;BME280;8643;48.824;11.422;2023-08-06T07:25:04;96075.41;;;15.40;100.00
17054;BME280;8643;48.824;11.422;2023-08-06T07:27:34;96072.97;;;15.35;100.00
17054;BME280;8643;48.824;11.422;2023-08-06T07:30:03;96066.75;;;15.45;100.00
17054;BME280;8643;48.824;11.422;2023-08-06T07:32:32;96080.66;;;15.60;100.00
17054;BME280;8643;48.824;11.422;2023-08-06T07:35:03;96077.88;;;15.60;100.00
17054;BME280;8643;48.824;11.422;2023-08-06T07:37:31;96077.06;;;15.59;100.00
17054;BME280;8643;48.824;11.422;2023-08-06T07:40:00;96074.22;;;15.45;100.00
17054;BME280;8643;48.824;11.422;2023-08-06T07:42:28;96072.31;;;15.52;100.00
17054;BME280;8643;48.824;11.422;2023-08-06T07:44:58;96065.28;;;15.66;100.00
17054;BME280;8643;48.824;11.422;2023-08-06T07:47:27;96071.63;;;15.66;100.00
17054;BME280;8643;48.824;11.422;2023-08-06T07:49:55;96078.66;;;15.56;100.00
17054;BME280;8643;48.824;11.422;2023-08-06T07:52:25;96072.31;;;15.56;100.00
17054;BME280;8643;48.824;11.422;2023-08-06T07:54:53;96072.31;;;15.52;100.00
17054;BME280;8643;48.824;11.422;2023-08-06T07:57:22;96064.09;;;15.60;100.00
17054;BME280;8643;48.824;11.422;2023-08-06T07:59:51;96065.63;;;15.53;100.00
17054;BME280;8643;48.824;11.422;2023-08-06T08:02:21;96057.38;;;15.57;100.00
17054;BME280;8643;48.824;11.422;2023-08-06T08:04:50;96063.28;;;15.63;100.00
17054;BME280;8643;48.824;11.422;2023-08-06T08:07:18;96056.91;;;16.25;100.00
17054;BME280;8643;48.824;11.422;2023-08-06T08:09:49;96049.28;;;18.05;100.00
17054;BME280;8643;48.824;11.422;2023-08-06T08:12:17;96050.25;;;19.07;100.00
17054;BME280;8643;48.824;11.422;2023-08-06T08:14:46;96044.97;;;19.23;99.39
17054;BME280;8643;48.824;11.422;2023-08-06T08:17:14;96057.06;;;19.40;92.90
17054;BME280;8643;48.824;11.422;2023-08-06T08:19:43;96047.00;;;19.16;95.88
17054;BME280;8643;48.824;11.422;2023-08-06T08:22:12;96051.69;;;18.00;95.03
17054;BME280;8643;48.824;11.422;2023-08-06T08:24:40;96047.50;;;17.41;100.00
17054;BME280;8643;48.824;11.422;2023-08-06T08:27:10;96035.53;;;18.58;95.77
17054;BME280;8643;48.824;11.422;2023-08-06T08:29:38;96034.69;;;19.96;88.56
17054;BME280;8643;48.824;11.422;2023-08-06T08:32:07;96032.91;;;19.37;87.47
17054;BME280;8643;48.824;11.422;2023-08-06T08:34:37;96034.28;;;18.03;92.21
17054;BME280;8643;48.824;11.422;2023-08-06T08:37:05;96034.09;;;17.18;99.89
17054;BME280;8643;48.824;11.422;2023-08-06T08:39:34;96047.88;;;16.67;100.00
17054;BME280;8643;48.824;11.422;2023-08-06T08:42:03;96044.25;;;16.17;100.00
17054;BME280;8643;48.824;11.422;2023-08-06T08:44:33;96045.50;;;16.48;100.00
17054;BME280;8643;48.824;11.422;2023-08-06T08:47:05;96031.19;;;17.75;97.83
17054;BME280;8643;48.824;11.422;2023-08-06T08:49:36;96051.31;;;17.90;97.64
17054;BME280;8643;48.824;11.422;2023-08-06T08:52:06;96043.19;;;17.00;100.00
17054;BME280;8643;48.824;11.422;2023-08-06T08:54:38;96048.25;;;16.48;100.00
17054;BME280;8643;48.824;11.422;2023-08-06T08:57:08;96049.66;;;15.88;100.00
17054;BME280;8643;48.824;11.422;2023-08-06T08:59:38;96051.88;;;15.64;100.00
17054;BME280;8643;48.824;11.422;2023-08-06T09:02:09;96051.75;;;15.43;100.00
17054;BME280;8643;48.824;11.422;2023-08-06T09:04:40;96061.41;;;15.08;100.00
17054;BME280;8643;48.824;11.422;2023-08-06T09:07:12;96057.16;;;14.73;100.00
17054;BME280;8643;48.824;11.422;2023-08-06T09:09:44;96053.25;;;14.77;100.00
17054;BME280;8643;48.824;11.422;2023-08-06T09:12:16;96052.00;;;15.16;100.00
17054;BME280;8643;48.824;11.422;2023-08-06T09:14:46;96049.84;;;16.60;100.00
17054;BME280;8643;48.824;11.422;2023-08-06T09:17:15;96045.50;;;17.45;100.00
17054;BME280;8643;48.824;11.422;2023-08-06T09:19:47;96046.31;;;17.20;100.00
17054;BME280;8643;48.824;11.422;2023-08-06T09:22:16;96045.13;;;16.82;100.00
17054;BME280;8643;48.824;11.422;2023-08-06T09:24:45;96038.81;;;16.74;100.00
17054;BME280;8643;48.824;11.422;2023-08-06T09:27:14;96037.59;;;16.57;100.00
17054;BME280;8643;48.824;11.422;2023-08-06T09:29:44;96037.97;;;16.30;100.00
17054;BME280;8643;48.824;11.422;2023-08-06T09:32:14;96041.44;;;16.13;100.00
17054;BME280;8643;48.824;11.422;2023-08-06T09:34:43;96044.09;;;15.77;100.00
17054;BME280;8643;48.824;11.422;2023-08-06T09:37:12;96043.59;;;15.61;100.00
17054;BME280;8643;48.824;11.422;2023-08-06T09:39:41;96042.50;;;15.13;100.00
17054;BME280;8643;48.824;11.422;2023-08-06T09:42:09;96051.00;;;14.90;100.00
17054;BME280;8643;48.824;11.422;2023-08-06T09:44:41;96044.88;;;14.63;100.00
17054;BME280;8643;48.824;11.422;2023-08-06T09:47:09;96048.50;;;14.71;100.00
17054;BME280;8643;48.824;11.422;2023-08-06T09:49:43;96052.22;;;15.55;100.00
17054;BME280;8643;48.824;11.422;2023-08-06T09:52:14;96034.50;;;16.88;100.00
17054;BME280;8643;48.824;11.422;2023-08-06T09:54:44;96037.63;;;17.33;100.00
17054;BME280;8643;48.824;11.422;2023-08-06T09:57:14;96037.25;;;17.20;100.00
17054;BME280;8643;48.824;11.422;2023-08-06T09:59:43;96032.91;;;16.94;100.00
17054;BME280;8643;48.824;11.422;2023-08-06T10:02:13;96032.47;;;17.35;100.00
17054;BME280;8643;48.824;11.422;2023-08-06T10:04:45;96033.59;;;17.59;100.00
17054;BME280;8643;48.824;11.422;2023-08-06T10:07:22;96025.59;;;17.93;100.00
17054;BME280;8643;48.824;11.422;2023-08-06T10:09:51;96033.16;;;17.78;100.00
17054;BME280;8643;48.824;11.422;2023-08-06T10:12:20;96034.41;;;18.52;97.63
17054;BME280;8643;48.824;11.422;2023-08-06T10:14:55;96022.88;;;18.57;96.98
17054;BME280;8643;48.824;11.422;2023-08-06T10:17:26;96023.41;;;19.76;92.05
17054;BME280;8643;48.824;11.422;2023-08-06T10:20:16;96013.97;;;20.01;85.94
17054;BME280;8643;48.824;11.422;2023-08-06T10:22:45;96014.75;;;18.80;89.97
17054;BME280;8643;48.824;11.422;2023-08-06T10:25:18;96004.41;;;18.36;90.68
17054;BME280;8643;48.824;11.422;2023-08-06T10:27:54;96030.94;;;18.33;93.23
17054;BME280;8643;48.824;11.422;2023-08-06T10:30:25;96023.19;;;18.69;88.51
17054;BME280;8643;48.824;11.422;2023-08-06T10:32:55;96025.75;;;18.39;90.19
17054;BME280;8643;48.824;11.422;2023-08-06T10:35:37;96024.44;;;17.87;95.84
17054;BME280;8643;48.824;11.422;2023-08-06T10:38:09;96012.97;;;17.82;97.72
17054;BME280;8643;48.824;11.422;2023-08-06T10:40:41;96026.13;;;17.49;99.44
17054;BME280;8643;48.824;11.422;2023-08-06T10:43:25;96031.72;;;16.91;100.00
17054;BME280;8643;48.824;11.422;2023-08-06T10:45:56;96043.53;;;16.63;100.00
17054;BME280;8643;48.824;11.422;2023-08-06T10:48:34;96036.38;;;16.29;100.00
17054;BME280;8643;48.824;11.422;2023-08-06T10:51:09;96033.53;;;16.04;100.00
17054;BME280;8643;48.824;11.422;2023-08-06T10:53:38;96036.41;;;16.33;100.00
17054;BME280;8643;48.824;11.422;2023-08-06T10:56:13;96034.75;;;17.80;100.00
17054;BME280;8643;48.824;11.422;2023-08-06T10:58:43;96032.19;;;18.21;97.90
17054;BME280;8643;48.824;11.422;2023-08-06T11:01:12;96029.78;;;18.90;92.99
17054;BME280;8643;48.824;11.422;2023-08-06T11:03:42;96033.84;;;18.08;93.41
17054;BME280;8643;48.824;11.422;2023-08-06T11:06:17;96025.25;;;17.73;96.82
17054;BME280;8643;48.824;11.422;2023-08-06T11:08:51;96038.69;;;17.71;96.18
17054;BME280;8643;48.824;11.422;2023-08-06T11:11:22;96018.47;;;18.00;92.97
17054;BME280;8643;48.824;11.422;2023-08-06T11:13:51;96016.94;;;17.77;93.62
17054;BME280;8643;48.824;11.422;2023-08-06T11:16:23;96022.72;;;18.15;93.05
17054;BME280;8643;48.824;11.422;2023-08-06T11:18:52;96018.94;;;17.69;98.00
17054;BME280;8643;48.824;11.422;2023-08-06T11:21:23;96027.75;;;17.28;100.00
17054;BME280;8643;48.824;11.422;2023-08-06T11:23:53;96035.63;;;16.68;100.00
17054;BME280;8643;48.824;11.422;2023-08-06T11:26:22;96032.47;;;16.59;100.00
17054;BME280;8643;48.824;11.422;2023-08-06T11:28:51;96041.50;;;16.20;100.00
17054;BME280;8643;48.824;11.422;2023-08-06T11:31:20;96050.41;;;15.78;100.00
17054;BME280;8643;48.824;11.422;2023-08-06T11:33:50;96056.78;;;15.26;100.00
17054;BME280;8643;48.824;11.422;2023-08-06T11:36:30;96055.81;;;14.56;100.00
17054;BME280;8643;48.824;11.422;2023-08-06T11:38:59;96049.50;;;14.18;100.00
17054;BME280;8643;48.824;11.422;2023-08-06T11:41:28;96050.72;;;14.20;100.00
17054;BME280;8643;48.824;11.422;2023-08-06T11:43:57;96054.88;;;14.41;100.00
17054;BME280;8643;48.824;11.422;2023-08-06T11:46:26;96049.72;;;14.73;100.00
17054;BME280;8643;48.824;11.422;2023-08-06T11:48:56;96046.09;;;15.17;100.00
17054;BME280;8643;48.824;11.422;2023-08-06T11:51:26;96051.69;;;15.32;100.00
17054;BME280;8643;48.824;11.422;2023-08-06T11:53:56;96043.09;;;15.44;100.00
17054;BME280;8643;48.824;11.422;2023-08-06T11:56:26;96047.03;;;15.43;100.00
17054;BME280;8643;48.824;11.422;2023-08-06T11:58:55;96041.47;;;15.36;100.00
17054;BME280;8643;48.824;11.422;2023-08-06T12:01:25;96050.13;;;15.31;100.00
17054;BME280;8643;48.824;11.422;2023-08-06T12:03:58;96049.66;;;15.21;100.00
17054;BME280;8643;48.824;11.422;2023-08-06T12:06:27;96058.88;;;15.44;100.00
17054;BME280;8643;48.824;11.422;2023-08-06T12:08:57;96062.03;;;15.46;100.00
17054;BME280;8643;48.824;11.422;2023-08-06T12:11:25;96067.69;;;15.71;100.00
17054;BME280;8643;48.824;11.422;2023-08-06T12:13:55;96061.34;;;15.67;100.00
17054;BME280;8643;48.824;11.422;2023-08-06T12:16:24;96066.88;;;15.63;100.00
17054;BME280;8643;48.824;11.422;2023-08-06T12:18:53;96063.06;;;15.89;100.00
17054;BME280;8643;48.824;11.422;2023-08-06T12:21:21;96064.94;;;15.74;100.00
17054;BME280;8643;48.824;11.422;2023-08-06T12:23:49;96069.25;;;15.72;100.00
17054;BME280;8643;48.824;11.422;2023-08-06T12:26:19;96057.06;;;15.73;100.00
17054;BME280;8643;48.824;11.422;2023-08-06T12:28:48;96053.44;;;15.62;100.00
17054;BME280;8643;48.824;11.422;2023-08-06T12:31:17;96055.09;;;15.73;100.00
17054;BME280;8643;48.824;11.422;2023-08-06T12:33:46;96064.31;;;16.06;100.00
17054;BME280;8643;48.824;11.422;2023-08-06T12:36:15;96059.22;;;16.19;100.00
17054;BME280;8643;48.824;11.422;2023-08-06T12:38:43;96057.97;;;15.95;100.00
17054;BME280;8643;48.824;11.422;2023-08-06T12:41:11;96054.78;;;15.86;100.00
17054;BME280;8643;48.824;11.422;2023-08-06T12:43:41;96045.69;;;15.85;100.00
17054;BME280;8643;48.824;11.422;2023-08-06T12:46:09;96050.28;;;15.60;100.00
17054;BME280;8643;48.824;11.422;2023-08-06T12:48:39;96046.59;;;15.34;100.00
17054;BME280;8643;48.824;11.422;2023-08-06T12:51:08;96042.47;;;15.02;100.00
17054;BME280;8643;48.824;11.422;2023-08-06T12:53:36;96059.53;;;14.33;100.00
17054;BME280;8643;48.824;11.422;2023-08-06T12:56:05;96066.06;;;13.84;100.00
17054;BME280;8643;48.824;11.422;2023-08-06T12:58:33;96071.00;;;13.71;100.00
17054;BME280;8643;48.824;11.422;2023-08-06T13:01:03;96074.53;;;13.71;100.00
17054;BME280;8643;48.824;11.422;2023-08-06T13:03:32;96076.84;;;14.00;100.00